sensor_id;sensor_type;location;lat;lon;timestamp;P1;durP1;ratioP1;P2;durP2;ratioP2
61358;SDS011;47228;46.762;23.598;2023-12-04T00:00:07;13.90;;;9.00;;
61358;SDS011;47228;46.762;23.598;2023-12-04T00:02:56;14.50;;;9.10;;
61358;SDS011;47228;46.762;23.598;2023-12-04T00:05:24;15.00;;;10.30;;
61358;SDS011;47228;46.762;23.598;2023-12-04T00:07:52;13.40;;;8.50;;
61358;SDS011;47228;46.762;23.598;2023-12-04T00:10:21;14.10;;;9.20;;
61358;SDS011;47228;46.762;23.598;2023-12-04T00:12:49;13.50;;;8.60;;
61358;SDS011;47228;46.762;23.598;2023-12-04T00:15:19;13.00;;;9.10;;
61358;SDS011;47228;46.762;23.598;2023-12-04T00:17:47;14.70;;;9.30;;
61358;SDS011;47228;46.762;23.598;2023-12-04T00:20:16;14.30;;;9.30;;
61358;SDS011;47228;46.762;23.598;2023-12-04T00:22:45;14.10;;;9.10;;
61358;SDS011;47228;46.762;23.598;2023-12-04T00:25:13;13.80;;;9.30;;
61358;SDS011;47228;46.762;23.598;2023-12-04T00:27:41;12.80;;;8.70;;
61358;SDS011;47228;46.762;23.598;2023-12-04T00:30:12;14.50;;;9.20;;
61358;SDS011;47228;46.762;23.598;2023-12-04T00:32:40;14.90;;;8.80;;
61358;SDS011;47228;46.762;23.598;2023-12-04T00:35:09;14.30;;;8.40;;
61358;SDS011;47228;46.762;23.598;2023-12-04T00:37:37;13.60;;;8.30;;
61358;SDS011;47228;46.762;23.598;2023-12-04T00:40:06;14.70;;;9.20;;
61358;SDS011;47228;46.762;23.598;2023-12-04T00:42:35;13.30;;;8.40;;
61358;SDS011;47228;46.762;23.598;2023-12-04T00:45:03;12.80;;;9.00;;
61358;SDS011;47228;46.762;23.598;2023-12-04T00:47:32;12.40;;;8.00;;
61358;SDS011;47228;46.762;23.598;2023-12-04T00:50:01;13.40;;;7.90;;
61358;SDS011;47228;46.762;23.598;2023-12-04T00:52:29;14.50;;;7.60;;
61358;SDS011;47228;46.762;23.598;2023-12-04T00:54:58;12.50;;;8.40;;
61358;SDS011;47228;46.762;23.598;2023-12-04T00:57:29;14.50;;;8.80;;
61358;SDS011;47228;46.762;23.598;2023-12-04T00:59:57;15.30;;;8.60;;
61358;SDS011;47228;46.762;23.598;2023-12-04T01:02:25;13.90;;;8.60;;
61358;SDS011;47228;46.762;23.598;2023-12-04T01:04:54;13.50;;;8.50;;
61358;SDS011;47228;46.762;23.598;2023-12-04T01:07:22;14.20;;;9.50;;
61358;SDS011;47228;46.762;23.598;2023-12-04T01:09:50;13.70;;;9.00;;
61358;SDS011;47228;46.762;23.598;2023-12-04T01:12:18;14.60;;;9.30;;
61358;SDS011;47228;46.762;23.598;2023-12-04T01:14:46;14.50;;;8.90;;
61358;SDS011;47228;46.762;23.598;2023-12-04T01:17:14;13.00;;;8.30;;
61358;SDS011;47228;46.762;23.598;2023-12-04T01:19:42;14.00;;;8.20;;
61358;SDS011;47228;46.762;23.598;2023-12-04T01:22:10;13.50;;;8.90;;
61358;SDS011;47228;46.762;23.598;2023-12-04T01:24:38;12.90;;;8.40;;
61358;SDS011;47228;46.762;23.598;2023-12-04T01:27:07;12.90;;;7.90;;
61358;SDS011;47228;46.762;23.598;2023-12-04T01:29:35;13.50;;;8.60;;
61358;SDS011;47228;46.762;23.598;2023-12-04T01:32:03;12.20;;;8.30;;
61358;SDS011;47228;46.762;23.598;2023-12-04T01:34:32;11.60;;;7.60;;
61358;SDS011;47228;46.762;23.598;2023-12-04T01:37:00;12.30;;;8.00;;
61358;SDS011;47228;46.762;23.598;2023-12-04T01:39:28;12.90;;;8.80;;
61358;SDS011;47228;46.762;23.598;2023-12-04T01:41:57;12.80;;;8.90;;
61358;SDS011;47228;46.762;23.598;2023-12-04T01:44:25;14.20;;;8.80;;
61358;SDS011;47228;46.762;23.598;2023-12-04T01:46:54;12.60;;;8.50;;
61358;SDS011;47228;46.762;23.598;2023-12-04T01:49:23;15.40;;;9.40;;
61358;SDS011;47228;46.762;23.598;2023-12-04T01:51:52;13.70;;;8.70;;
61358;SDS011;47228;46.762;23.598;2023-12-04T01:54:20;13.60;;;8.80;;
61358;SDS011;47228;46.762;23.598;2023-12-04T01:56:49;13.60;;;9.10;;
61358;SDS011;47228;46.762;23.598;2023-12-04T01:59:17;14.00;;;9.40;;
61358;SDS011;47228;46.762;23.598;2023-12-04T02:01:46;13.70;;;9.10;;
61358;SDS011;47228;46.762;23.598;2023-12-04T02:04:15;15.00;;;9.60;;
61358;SDS011;47228;46.762;23.598;2023-12-04T02:06:43;13.70;;;8.00;;
61358;SDS011;47228;46.762;23.598;2023-12-04T02:09:11;13.00;;;8.60;;
61358;SDS011;47228;46.762;23.598;2023-12-04T02:11:41;13.20;;;9.10;;
61358;SDS011;47228;46.762;23.598;2023-12-04T02:14:10;12.40;;;8.10;;
61358;SDS011;47228;46.762;23.598;2023-12-04T02:16:38;13.70;;;8.90;;
61358;SDS011;47228;46.762;23.598;2023-12-04T02:19:12;15.90;;;9.10;;
61358;SDS011;47228;46.762;23.598;2023-12-04T02:21:41;13.80;;;9.20;;
61358;SDS011;47228;46.762;23.598;2023-12-04T02:24:09;13.40;;;8.80;;
61358;SDS011;47228;46.762;23.598;2023-12-04T02:26:47;13.60;;;8.30;;
61358;SDS011;47228;46.762;23.598;2023-12-04T02:29:39;14.90;;;9.60;;
61358;SDS011;47228;46.762;23.598;2023-12-04T02:32:15;14.50;;;9.00;;
61358;SDS011;47228;46.762;23.598;2023-12-04T02:34:46;12.90;;;8.60;;
61358;SDS011;47228;46.762;23.598;2023-12-04T02:37:16;12.00;;;8.30;;
61358;SDS011;47228;46.762;23.598;2023-12-04T02:39:47;12.40;;;8.20;;
61358;SDS011;47228;46.762;23.598;2023-12-04T02:42:19;12.50;;;8.10;;
61358;SDS011;47228;46.762;23.598;2023-12-04T02:44:47;10.60;;;7.40;;
61358;SDS011;47228;46.762;23.598;2023-12-04T02:47:16;12.30;;;7.90;;
61358;SDS011;47228;46.762;23.598;2023-12-04T02:49:44;10.30;;;7.20;;
61358;SDS011;47228;46.762;23.598;2023-12-04T02:52:12;13.20;;;8.50;;
61358;SDS011;47228;46.762;23.598;2023-12-04T02:54:41;11.90;;;7.70;;
61358;SDS011;47228;46.762;23.598;2023-12-04T02:57:09;10.90;;;7.60;;
61358;SDS011;47228;46.762;23.598;2023-12-04T02:59:37;11.50;;;7.90;;
61358;SDS011;47228;46.762;23.598;2023-12-04T03:02:05;12.10;;;7.80;;
61358;SDS011;47228;46.762;23.598;2023-12-04T03:04:34;12.60;;;8.60;;
61358;SDS011;47228;46.762;23.598;2023-12-04T03:07:03;13.30;;;8.40;;
61358;SDS011;47228;46.762;23.598;2023-12-04T03:09:31;11.40;;;7.70;;
61358;SDS011;47228;46.762;23.598;2023-12-04T03:12:16;13.10;;;8.10;;
61358;SDS011;47228;46.762;23.598;2023-12-04T03:14:45;11.90;;;8.60;;
61358;SDS011;47228;46.762;23.598;2023-12-04T03:17:13;12.40;;;9.20;;
61358;SDS011;47228;46.762;23.598;2023-12-04T03:19:41;12.40;;;8.00;;
61358;SDS011;47228;46.762;23.598;2023-12-04T03:22:09;12.50;;;8.30;;
61358;SDS011;47228;46.762;23.598;2023-12-04T03:24:38;12.70;;;7.80;;
61358;SDS011;47228;46.762;23.598;2023-12-04T03:27:06;12.90;;;7.90;;
61358;SDS011;47228;46.762;23.598;2023-12-04T03:29:34;12.10;;;8.10;;
61358;SDS011;47228;46.762;23.598;2023-12-04T03:32:02;11.10;;;7.60;;
61358;SDS011;47228;46.762;23.598;2023-12-04T03:34:30;12.10;;;7.70;;
61358;SDS011;47228;46.762;23.598;2023-12-04T03:36:59;12.10;;;8.00;;
61358;SDS011;47228;46.762;23.598;2023-12-04T03:39:27;13.00;;;7.70;;
61358;SDS011;47228;46.762;23.598;2023-12-04T03:41:55;12.40;;;8.20;;
61358;SDS011;47228;46.762;23.598;2023-12-04T03:44:24;10.60;;;7.60;;
61358;SDS011;47228;46.762;23.598;2023-12-04T03:46:53;11.10;;;7.20;;
61358;SDS011;47228;46.762;23.598;2023-12-04T03:49:21;11.50;;;7.30;;
61358;SDS011;47228;46.762;23.598;2023-12-04T03:51:50;13.10;;;8.50;;
61358;SDS011;47228;46.762;23.598;2023-12-04T03:54:18;13.20;;;8.10;;
61358;SDS011;47228;46.762;23.598;2023-12-04T03:56:46;11.30;;;7.30;;
61358;SDS011;47228;46.762;23.598;2023-12-04T03:59:14;12.60;;;8.10;;
61358;SDS011;47228;46.762;23.598;2023-12-04T04:01:42;11.50;;;8.00;;
61358;SDS011;47228;46.762;23.598;2023-12-04T04:04:10;13.00;;;8.60;;
61358;SDS011;47228;46.762;23.598;2023-12-04T04:06:39;15.10;;;8.30;;
61358;SDS011;47228;46.762;23.598;2023-12-04T04:09:07;11.50;;;7.80;;
61358;SDS011;47228;46.762;23.598;2023-12-04T04:11:35;10.90;;;7.30;;
61358;SDS011;47228;46.762;23.598;2023-12-04T04:14:03;11.60;;;7.50;;
61358;SDS011;47228;46.762;23.598;2023-12-04T04:16:34;11.60;;;8.00;;
61358;SDS011;47228;46.762;23.598;2023-12-04T04:19:03;10.60;;;7.50;;
61358;SDS011;47228;46.762;23.598;2023-12-04T04:21:31;11.20;;;7.60;;
61358;SDS011;47228;46.762;23.598;2023-12-04T04:24:00;11.20;;;7.70;;
61358;SDS011;47228;46.762;23.598;2023-12-04T04:26:28;13.40;;;8.10;;
61358;SDS011;47228;46.762;23.598;2023-12-04T04:28:57;11.70;;;7.90;;
61358;SDS011;47228;46.762;23.598;2023-12-04T04:31:26;12.80;;;7.80;;
61358;SDS011;47228;46.762;23.598;2023-12-04T04:33:54;11.80;;;7.50;;
61358;SDS011;47228;46.762;23.598;2023-12-04T04:36:22;13.30;;;8.50;;
61358;SDS011;47228;46.762;23.598;2023-12-04T04:38:50;14.20;;;9.10;;
61358;SDS011;47228;46.762;23.598;2023-12-04T04:41:19;13.20;;;8.20;;
61358;SDS011;47228;46.762;23.598;2023-12-04T04:43:47;13.60;;;8.90;;
61358;SDS011;47228;46.762;23.598;2023-12-04T04:46:15;15.40;;;9.00;;
61358;SDS011;47228;46.762;23.598;2023-12-04T04:48:44;14.20;;;9.80;;
61358;SDS011;47228;46.762;23.598;2023-12-04T04:51:12;15.60;;;9.50;;
61358;SDS011;47228;46.762;23.598;2023-12-04T04:53:40;18.00;;;10.20;;
61358;SDS011;47228;46.762;23.598;2023-12-04T04:56:08;17.10;;;9.80;;
61358;SDS011;47228;46.762;23.598;2023-12-04T04:58:40;14.70;;;10.00;;
61358;SDS011;47228;46.762;23.598;2023-12-04T05:01:10;16.60;;;10.70;;
61358;SDS011;47228;46.762;23.598;2023-12-04T05:03:39;17.00;;;10.20;;
61358;SDS011;47228;46.762;23.598;2023-12-04T05:06:07;18.40;;;10.10;;
61358;SDS011;47228;46.762;23.598;2023-12-04T05:08:36;15.30;;;10.40;;
61358;SDS011;47228;46.762;23.598;2023-12-04T05:11:04;16.10;;;9.60;;
61358;SDS011;47228;46.762;23.598;2023-12-04T05:13:32;15.70;;;9.30;;
61358;SDS011;47228;46.762;23.598;2023-12-04T05:16:00;14.20;;;9.60;;
61358;SDS011;47228;46.762;23.598;2023-12-04T05:18:28;12.70;;;9.30;;
61358;SDS011;47228;46.762;23.598;2023-12-04T05:20:57;16.60;;;9.60;;
61358;SDS011;47228;46.762;23.598;2023-12-04T05:23:25;16.90;;;10.90;;
61358;SDS011;47228;46.762;23.598;2023-12-04T05:25:54;15.70;;;10.40;;
61358;SDS011;47228;46.762;23.598;2023-12-04T05:28:22;15.90;;;10.20;;
61358;SDS011;47228;46.762;23.598;2023-12-04T05:30:50;18.80;;;10.80;;
61358;SDS011;47228;46.762;23.598;2023-12-04T05:33:18;18.20;;;10.70;;
61358;SDS011;47228;46.762;23.598;2023-12-04T05:35:49;18.40;;;10.30;;
61358;SDS011;47228;46.762;23.598;2023-12-04T05:38:21;16.40;;;11.20;;
61358;SDS011;47228;46.762;23.598;2023-12-04T05:40:49;16.70;;;10.40;;
61358;SDS011;47228;46.762;23.598;2023-12-04T05:43:17;17.10;;;11.30;;
61358;SDS011;47228;46.762;23.598;2023-12-04T05:45:49;18.90;;;11.30;;
61358;SDS011;47228;46.762;23.598;2023-12-04T05:48:19;16.20;;;10.30;;
61358;SDS011;47228;46.762;23.598;2023-12-04T05:50:47;16.90;;;9.80;;
61358;SDS011;47228;46.762;23.598;2023-12-04T05:53:16;18.30;;;11.30;;
61358;SDS011;47228;46.762;23.598;2023-12-04T05:55:44;16.20;;;10.40;;
61358;SDS011;47228;46.762;23.598;2023-12-04T05:58:14;15.20;;;10.40;;
61358;SDS011;47228;46.762;23.598;2023-12-04T06:00:44;16.70;;;9.90;;
61358;SDS011;47228;46.762;23.598;2023-12-04T06:03:12;17.00;;;10.50;;
61358;SDS011;47228;46.762;23.598;2023-12-04T06:05:40;14.80;;;9.80;;
61358;SDS011;47228;46.762;23.598;2023-12-04T06:08:24;17.50;;;10.70;;
61358;SDS011;47228;46.762;23.598;2023-12-04T06:10:52;18.30;;;12.00;;
61358;SDS011;47228;46.762;23.598;2023-12-04T06:13:20;21.80;;;12.00;;
61358;SDS011;47228;46.762;23.598;2023-12-04T06:15:52;19.90;;;12.40;;
61358;SDS011;47228;46.762;23.598;2023-12-04T06:18:20;20.20;;;11.70;;
61358;SDS011;47228;46.762;23.598;2023-12-04T06:20:48;17.40;;;11.20;;
61358;SDS011;47228;46.762;23.598;2023-12-04T06:23:17;19.70;;;11.80;;
61358;SDS011;47228;46.762;23.598;2023-12-04T06:25:46;19.00;;;11.50;;
61358;SDS011;47228;46.762;23.598;2023-12-04T06:28:14;16.00;;;10.00;;
61358;SDS011;47228;46.762;23.598;2023-12-04T06:30:43;19.20;;;10.40;;
61358;SDS011;47228;46.762;23.598;2023-12-04T06:33:11;16.30;;;9.90;;
61358;SDS011;47228;46.762;23.598;2023-12-04T06:35:42;17.10;;;10.40;;
61358;SDS011;47228;46.762;23.598;2023-12-04T06:38:10;16.70;;;10.60;;
61358;SDS011;47228;46.762;23.598;2023-12-04T06:40:43;18.50;;;11.80;;
61358;SDS011;47228;46.762;23.598;2023-12-04T06:43:12;17.40;;;10.60;;
61358;SDS011;47228;46.762;23.598;2023-12-04T06:45:40;18.40;;;11.60;;
61358;SDS011;47228;46.762;23.598;2023-12-04T06:48:09;21.90;;;11.60;;
61358;SDS011;47228;46.762;23.598;2023-12-04T06:50:41;15.90;;;10.30;;
61358;SDS011;47228;46.762;23.598;2023-12-04T06:53:09;19.00;;;10.40;;
61358;SDS011;47228;46.762;23.598;2023-12-04T06:55:38;16.90;;;10.80;;
61358;SDS011;47228;46.762;23.598;2023-12-04T06:58:06;18.90;;;11.20;;
61358;SDS011;47228;46.762;23.598;2023-12-04T07:00:34;19.60;;;11.60;;
61358;SDS011;47228;46.762;23.598;2023-12-04T07:03:03;21.30;;;11.10;;
61358;SDS011;47228;46.762;23.598;2023-12-04T07:05:31;21.00;;;10.90;;
61358;SDS011;47228;46.762;23.598;2023-12-04T07:08:00;17.30;;;11.30;;
61358;SDS011;47228;46.762;23.598;2023-12-04T07:10:34;15.10;;;9.90;;
61358;SDS011;47228;46.762;23.598;2023-12-04T07:13:02;21.80;;;11.80;;
61358;SDS011;47228;46.762;23.598;2023-12-04T07:15:30;15.70;;;10.00;;
61358;SDS011;47228;46.762;23.598;2023-12-04T07:17:58;16.80;;;10.70;;
61358;SDS011;47228;46.762;23.598;2023-12-04T07:20:26;16.30;;;10.10;;
61358;SDS011;47228;46.762;23.598;2023-12-04T07:22:55;17.20;;;10.20;;
61358;SDS011;47228;46.762;23.598;2023-12-04T07:25:26;17.30;;;10.70;;
61358;SDS011;47228;46.762;23.598;2023-12-04T07:27:55;20.40;;;11.30;;
61358;SDS011;47228;46.762;23.598;2023-12-04T07:30:28;18.70;;;10.70;;
61358;SDS011;47228;46.762;23.598;2023-12-04T07:32:56;17.30;;;10.70;;
61358;SDS011;47228;46.762;23.598;2023-12-04T07:35:25;16.80;;;11.20;;
61358;SDS011;47228;46.762;23.598;2023-12-04T07:37:54;17.80;;;11.10;;
61358;SDS011;47228;46.762;23.598;2023-12-04T07:40:22;16.60;;;9.70;;
61358;SDS011;47228;46.762;23.598;2023-12-04T07:42:51;16.90;;;11.20;;
61358;SDS011;47228;46.762;23.598;2023-12-04T07:45:19;15.90;;;10.80;;
61358;SDS011;47228;46.762;23.598;2023-12-04T07:47:48;15.90;;;10.60;;
61358;SDS011;47228;46.762;23.598;2023-12-04T07:50:16;17.80;;;10.00;;
61358;SDS011;47228;46.762;23.598;2023-12-04T07:52:47;17.10;;;10.00;;
61358;SDS011;47228;46.762;23.598;2023-12-04T07:55:15;17.70;;;10.50;;
61358;SDS011;47228;46.762;23.598;2023-12-04T07:57:45;15.70;;;10.00;;
61358;SDS011;47228;46.762;23.598;2023-12-04T08:00:15;49.10;;;10.90;;
61358;SDS011;47228;46.762;23.598;2023-12-04T08:02:45;16.50;;;9.50;;
61358;SDS011;47228;46.762;23.598;2023-12-04T08:05:20;16.00;;;9.30;;
61358;SDS011;47228;46.762;23.598;2023-12-04T08:07:48;13.30;;;9.00;;
61358;SDS011;47228;46.762;23.598;2023-12-04T08:10:16;17.40;;;9.90;;
61358;SDS011;47228;46.762;23.598;2023-12-04T08:12:45;15.50;;;9.40;;
61358;SDS011;47228;46.762;23.598;2023-12-04T08:15:14;13.70;;;8.90;;
61358;SDS011;47228;46.762;23.598;2023-12-04T08:17:42;12.20;;;8.30;;
61358;SDS011;47228;46.762;23.598;2023-12-04T08:20:11;13.70;;;8.70;;
61358;SDS011;47228;46.762;23.598;2023-12-04T08:22:51;14.00;;;8.80;;
61358;SDS011;47228;46.762;23.598;2023-12-04T08:25:19;13.60;;;9.20;;
61358;SDS011;47228;46.762;23.598;2023-12-04T08:27:47;13.70;;;9.80;;
61358;SDS011;47228;46.762;23.598;2023-12-04T08:30:18;15.80;;;10.10;;
61358;SDS011;47228;46.762;23.598;2023-12-04T08:32:46;14.30;;;9.80;;
61358;SDS011;47228;46.762;23.598;2023-12-04T08:35:15;15.70;;;9.50;;
61358;SDS011;47228;46.762;23.598;2023-12-04T08:37:43;16.70;;;10.90;;
61358;SDS011;47228;46.762;23.598;2023-12-04T08:40:11;16.70;;;11.10;;
61358;SDS011;47228;46.762;23.598;2023-12-04T08:42:40;20.10;;;12.40;;
61358;SDS011;47228;46.762;23.598;2023-12-04T08:45:09;18.70;;;12.40;;
61358;SDS011;47228;46.762;23.598;2023-12-04T08:47:37;17.40;;;11.70;;
61358;SDS011;47228;46.762;23.598;2023-12-04T08:50:08;18.20;;;11.60;;
61358;SDS011;47228;46.762;23.598;2023-12-04T08:52:37;17.20;;;10.00;;
61358;SDS011;47228;46.762;23.598;2023-12-04T08:55:05;17.10;;;10.40;;
61358;SDS011;47228;46.762;23.598;2023-12-04T08:57:37;14.90;;;9.80;;
61358;SDS011;47228;46.762;23.598;2023-12-04T09:00:06;15.90;;;10.50;;
61358;SDS011;47228;46.762;23.598;2023-12-04T09:02:37;15.00;;;10.00;;
61358;SDS011;47228;46.762;23.598;2023-12-04T09:05:16;14.50;;;10.30;;
61358;SDS011;47228;46.762;23.598;2023-12-04T09:07:44;14.10;;;9.70;;
61358;SDS011;47228;46.762;23.598;2023-12-04T09:10:17;14.90;;;10.20;;
61358;SDS011;47228;46.762;23.598;2023-12-04T09:13:05;17.80;;;10.00;;
61358;SDS011;47228;46.762;23.598;2023-12-04T09:15:33;15.40;;;10.10;;
61358;SDS011;47228;46.762;23.598;2023-12-04T09:18:01;14.60;;;9.80;;
61358;SDS011;47228;46.762;23.598;2023-12-04T09:20:29;16.70;;;10.80;;
61358;SDS011;47228;46.762;23.598;2023-12-04T09:22:58;17.40;;;10.60;;
61358;SDS011;47228;46.762;23.598;2023-12-04T09:25:35;14.80;;;10.50;;
61358;SDS011;47228;46.762;23.598;2023-12-04T09:28:04;13.70;;;9.60;;
61358;SDS011;47228;46.762;23.598;2023-12-04T09:30:33;16.60;;;9.80;;
61358;SDS011;47228;46.762;23.598;2023-12-04T09:33:11;16.80;;;10.60;;
61358;SDS011;47228;46.762;23.598;2023-12-04T09:35:42;16.00;;;10.10;;
61358;SDS011;47228;46.762;23.598;2023-12-04T09:38:10;23.90;;;17.90;;
61358;SDS011;47228;46.762;23.598;2023-12-04T09:40:38;15.40;;;10.40;;
61358;SDS011;47228;46.762;23.598;2023-12-04T09:43:07;15.70;;;9.90;;
61358;SDS011;47228;46.762;23.598;2023-12-04T09:45:35;15.10;;;10.40;;
61358;SDS011;47228;46.762;23.598;2023-12-04T09:48:05;13.90;;;9.50;;
61358;SDS011;47228;46.762;23.598;2023-12-04T09:50:34;14.90;;;10.60;;
61358;SDS011;47228;46.762;23.598;2023-12-04T09:53:03;14.00;;;10.30;;
61358;SDS011;47228;46.762;23.598;2023-12-04T09:55:34;17.20;;;10.90;;
61358;SDS011;47228;46.762;23.598;2023-12-04T09:58:02;17.30;;;10.50;;
61358;SDS011;47228;46.762;23.598;2023-12-04T10:00:32;14.00;;;9.50;;
61358;SDS011;47228;46.762;23.598;2023-12-04T10:03:00;16.30;;;9.60;;
61358;SDS011;47228;46.762;23.598;2023-12-04T10:05:30;13.80;;;9.70;;
61358;SDS011;47228;46.762;23.598;2023-12-04T10:07:58;13.30;;;9.10;;
61358;SDS011;47228;46.762;23.598;2023-12-04T10:10:26;14.30;;;9.50;;
61358;SDS011;47228;46.762;23.598;2023-12-04T10:12:54;14.80;;;9.40;;
61358;SDS011;47228;46.762;23.598;2023-12-04T10:15:22;13.90;;;9.60;;
61358;SDS011;47228;46.762;23.598;2023-12-04T10:17:51;14.10;;;9.90;;
61358;SDS011;47228;46.762;23.598;2023-12-04T10:20:19;14.70;;;9.80;;
61358;SDS011;47228;46.762;23.598;2023-12-04T10:22:54;13.10;;;8.90;;
61358;SDS011;47228;46.762;23.598;2023-12-04T10:25:27;12.70;;;9.20;;
61358;SDS011;47228;46.762;23.598;2023-12-04T10:28:15;14.10;;;9.10;;
61358;SDS011;47228;46.762;23.598;2023-12-04T10:30:44;11.00;;;8.20;;
61358;SDS011;47228;46.762;23.598;2023-12-04T10:33:13;12.20;;;8.30;;
61358;SDS011;47228;46.762;23.598;2023-12-04T10:36:02;16.00;;;10.20;;
61358;SDS011;47228;46.762;23.598;2023-12-04T10:38:30;11.80;;;8.10;;
61358;SDS011;47228;46.762;23.598;2023-12-04T10:41:01;12.70;;;7.90;;
61358;SDS011;47228;46.762;23.598;2023-12-04T10:43:47;11.80;;;7.70;;
61358;SDS011;47228;46.762;23.598;2023-12-04T10:46:30;11.00;;;7.20;;
61358;SDS011;47228;46.762;23.598;2023-12-04T10:48:59;10.20;;;6.70;;
61358;SDS011;47228;46.762;23.598;2023-12-04T10:51:28;11.00;;;7.10;;
61358;SDS011;47228;46.762;23.598;2023-12-04T10:53:58;11.30;;;7.10;;
61358;SDS011;47228;46.762;23.598;2023-12-04T10:56:28;9.90;;;6.60;;
61358;SDS011;47228;46.762;23.598;2023-12-04T10:59:01;12.30;;;6.60;;
61358;SDS011;47228;46.762;23.598;2023-12-04T11:01:31;8.80;;;6.20;;
61358;SDS011;47228;46.762;23.598;2023-12-04T11:04:02;9.30;;;6.20;;
61358;SDS011;47228;46.762;23.598;2023-12-04T11:06:35;8.80;;;5.60;;
61358;SDS011;47228;46.762;23.598;2023-12-04T11:09:08;9.20;;;5.70;;
61358;SDS011;47228;46.762;23.598;2023-12-04T11:11:39;10.70;;;7.00;;
61358;SDS011;47228;46.762;23.598;2023-12-04T11:14:11;10.50;;;6.80;;
61358;SDS011;47228;46.762;23.598;2023-12-04T11:16:53;8.30;;;5.70;;
61358;SDS011;47228;46.762;23.598;2023-12-04T11:22:17;8.60;;;6.00;;
61358;SDS011;47228;46.762;23.598;2023-12-04T11:24:49;10.10;;;6.70;;
61358;SDS011;47228;46.762;23.598;2023-12-04T11:27:19;9.80;;;6.40;;
61358;SDS011;47228;46.762;23.598;2023-12-04T11:29:48;9.80;;;6.80;;
61358;SDS011;47228;46.762;23.598;2023-12-04T11:32:19;9.60;;;6.50;;
61358;SDS011;47228;46.762;23.598;2023-12-04T11:34:55;9.40;;;6.50;;
61358;SDS011;47228;46.762;23.598;2023-12-04T11:37:26;9.80;;;6.50;;
61358;SDS011;47228;46.762;23.598;2023-12-04T11:39:55;10.90;;;6.90;;
61358;SDS011;47228;46.762;23.598;2023-12-04T11:42:24;10.50;;;7.00;;
61358;SDS011;47228;46.762;23.598;2023-12-04T11:44:59;11.50;;;7.40;;
61358;SDS011;47228;46.762;23.598;2023-12-04T11:47:28;10.40;;;7.30;;
61358;SDS011;47228;46.762;23.598;2023-12-04T11:49:57;14.50;;;7.60;;
61358;SDS011;47228;46.762;23.598;2023-12-04T11:52:32;10.40;;;7.10;;
61358;SDS011;47228;46.762;23.598;2023-12-04T11:55:05;9.90;;;7.30;;
61358;SDS011;47228;46.762;23.598;2023-12-04T11:57:35;9.90;;;6.80;;
61358;SDS011;47228;46.762;23.598;2023-12-04T12:02:48;10.70;;;7.40;;
61358;SDS011;47228;46.762;23.598;2023-12-04T12:05:50;10.40;;;6.80;;
61358;SDS011;47228;46.762;23.598;2023-12-04T12:08:22;11.10;;;7.40;;
61358;SDS011;47228;46.762;23.598;2023-12-04T12:10:51;9.60;;;6.70;;
61358;SDS011;47228;46.762;23.598;2023-12-04T12:13:21;9.30;;;6.10;;
61358;SDS011;47228;46.762;23.598;2023-12-04T12:15:50;10.40;;;6.90;;
61358;SDS011;47228;46.762;23.598;2023-12-04T12:18:21;9.80;;;6.40;;
61358;SDS011;47228;46.762;23.598;2023-12-04T12:20:51;10.10;;;6.80;;
61358;SDS011;47228;46.762;23.598;2023-12-04T12:23:22;10.60;;;7.10;;
61358;SDS011;47228;46.762;23.598;2023-12-04T12:25:51;10.70;;;7.50;;
61358;SDS011;47228;46.762;23.598;2023-12-04T12:28:20;10.20;;;6.50;;
61358;SDS011;47228;46.762;23.598;2023-12-04T12:30:49;11.00;;;6.60;;
61358;SDS011;47228;46.762;23.598;2023-12-04T12:33:17;10.20;;;6.80;;
61358;SDS011;47228;46.762;23.598;2023-12-04T12:35:47;11.80;;;6.30;;
61358;SDS011;47228;46.762;23.598;2023-12-04T12:38:26;9.80;;;7.00;;
61358;SDS011;47228;46.762;23.598;2023-12-04T12:40:55;10.10;;;6.60;;
61358;SDS011;47228;46.762;23.598;2023-12-04T12:43:23;11.20;;;7.90;;
61358;SDS011;47228;46.762;23.598;2023-12-04T12:45:51;11.90;;;7.40;;
61358;SDS011;47228;46.762;23.598;2023-12-04T12:48:21;10.50;;;7.00;;
61358;SDS011;47228;46.762;23.598;2023-12-04T12:50:50;11.60;;;6.90;;
61358;SDS011;47228;46.762;23.598;2023-12-04T12:53:19;9.30;;;6.50;;
61358;SDS011;47228;46.762;23.598;2023-12-04T12:55:48;10.50;;;7.10;;
61358;SDS011;47228;46.762;23.598;2023-12-04T12:58:17;11.60;;;7.00;;
61358;SDS011;47228;46.762;23.598;2023-12-04T13:00:48;10.60;;;6.90;;
61358;SDS011;47228;46.762;23.598;2023-12-04T13:03:17;9.10;;;6.50;;
61358;SDS011;47228;46.762;23.598;2023-12-04T13:05:47;10.60;;;7.70;;
61358;SDS011;47228;46.762;23.598;2023-12-04T13:08:16;10.80;;;7.40;;
61358;SDS011;47228;46.762;23.598;2023-12-04T13:10:44;12.10;;;7.90;;
61358;SDS011;47228;46.762;23.598;2023-12-04T13:13:15;11.80;;;8.30;;
61358;SDS011;47228;46.762;23.598;2023-12-04T13:15:43;13.10;;;8.50;;
61358;SDS011;47228;46.762;23.598;2023-12-04T13:18:12;12.70;;;9.10;;
61358;SDS011;47228;46.762;23.598;2023-12-04T13:20:40;12.10;;;8.30;;
61358;SDS011;47228;46.762;23.598;2023-12-04T13:23:08;11.40;;;7.80;;
61358;SDS011;47228;46.762;23.598;2023-12-04T13:25:36;11.60;;;7.80;;
61358;SDS011;47228;46.762;23.598;2023-12-04T13:28:05;11.00;;;7.90;;
61358;SDS011;47228;46.762;23.598;2023-12-04T13:30:36;11.10;;;7.50;;
61358;SDS011;47228;46.762;23.598;2023-12-04T13:33:04;11.60;;;7.70;;
61358;SDS011;47228;46.762;23.598;2023-12-04T13:35:33;11.90;;;8.20;;
61358;SDS011;47228;46.762;23.598;2023-12-04T13:38:01;12.70;;;7.90;;
61358;SDS011;47228;46.762;23.598;2023-12-04T13:40:29;12.60;;;8.20;;
61358;SDS011;47228;46.762;23.598;2023-12-04T13:43:00;12.00;;;7.50;;
61358;SDS011;47228;46.762;23.598;2023-12-04T13:45:47;12.10;;;8.50;;
61358;SDS011;47228;46.762;23.598;2023-12-04T13:48:15;12.20;;;8.40;;
61358;SDS011;47228;46.762;23.598;2023-12-04T13:50:44;11.20;;;8.20;;
61358;SDS011;47228;46.762;23.598;2023-12-04T13:53:12;13.70;;;9.20;;
61358;SDS011;47228;46.762;23.598;2023-12-04T13:55:42;10.90;;;8.10;;
61358;SDS011;47228;46.762;23.598;2023-12-04T13:58:31;11.70;;;8.10;;
61358;SDS011;47228;46.762;23.598;2023-12-04T14:01:07;13.70;;;8.80;;
61358;SDS011;47228;46.762;23.598;2023-12-04T14:03:43;12.80;;;8.40;;
61358;SDS011;47228;46.762;23.598;2023-12-04T14:06:12;13.00;;;8.60;;
61358;SDS011;47228;46.762;23.598;2023-12-04T14:08:41;10.70;;;7.80;;
61358;SDS011;47228;46.762;23.598;2023-12-04T14:11:09;12.70;;;8.70;;
61358;SDS011;47228;46.762;23.598;2023-12-04T14:13:39;12.50;;;7.90;;
61358;SDS011;47228;46.762;23.598;2023-12-04T14:16:08;11.00;;;7.70;;
61358;SDS011;47228;46.762;23.598;2023-12-04T14:18:37;13.40;;;9.00;;
61358;SDS011;47228;46.762;23.598;2023-12-04T14:21:06;14.40;;;9.90;;
61358;SDS011;47228;46.762;23.598;2023-12-04T14:23:34;15.20;;;9.10;;
61358;SDS011;47228;46.762;23.598;2023-12-04T14:26:02;13.40;;;9.40;;
61358;SDS011;47228;46.762;23.598;2023-12-04T14:28:31;14.60;;;9.70;;
61358;SDS011;47228;46.762;23.598;2023-12-04T14:31:09;15.80;;;10.10;;
61358;SDS011;47228;46.762;23.598;2023-12-04T14:33:38;13.70;;;9.80;;
61358;SDS011;47228;46.762;23.598;2023-12-04T14:36:10;15.90;;;9.50;;
61358;SDS011;47228;46.762;23.598;2023-12-04T14:38:41;13.20;;;9.20;;